Dades meteomassalio
Diari Summary for Maig 19, 2017 Units:  Metric    English   Both
« Previous Day
Next Day »
Diari Semanal Mensual Anual Personalitzat
  Maxima: Minima: Mijana:
Temperatura: 20.6 °C 9.4 °C 14.6 °C
Rosada: 8.2 °C 5.7 °C 6.6 °C
Humitat: 78 % 39 % 61 %
Velocitat del vent: 40.7 km/h 0.0 km/h 19.5 km/h
Racha vent: 40.7 km/h - -
Vent:- - WNW
Pressio: 1022.2 hPa 1018.5 hPa -
Pluja: 0.0 mm    
Historical Graphs
 
 
Tabular Data for Maig 19, 2017
Time Temperature Dew Point Pressure Wind Wind Speed Wind Gust Humidity Rainfall Rate (Hourly) solar Conditions
00:00 11.0 °C 7.1 °C 1018.5 hPa WNW 35.2 km/h 35.2 km/h 77 % 0.0 mm 0.0 W/m2 RA
00:05 11.1 °C 7.0 °C 1018.5 hPa WNW 33.3 km/h 33.3 km/h 76 % 0.0 mm 0.0 W/m2 CLR
00:10 11.2 °C 7.1 °C 1018.5 hPa WNW 29.6 km/h 29.6 km/h 76 % 0.0 mm 0.0 W/m2 CLR
00:15 11.2 °C 7.1 °C 1018.5 hPa West 31.5 km/h 31.5 km/h 76 % 0.0 mm 0.0 W/m2 CLR
00:20 11.1 °C 7.1 °C 1018.5 hPa West 22.2 km/h 22.2 km/h 76 % 0.0 mm 0.0 W/m2 CLR
00:25 11.0 °C 7.1 °C 1018.5 hPa WNW 20.4 km/h 20.4 km/h 77 % 0.0 mm 0.0 W/m2 CLR
00:30 11.1 °C 7.2 °C 1018.5 hPa West 25.9 km/h 25.9 km/h 77 % 0.0 mm 0.0 W/m2 CLR
00:35 11.0 °C 7.1 °C 1018.8 hPa West 25.9 km/h 25.9 km/h 77 % 0.0 mm 0.0 W/m2 CLR
00:40 11.0 °C 6.9 °C 1018.8 hPa NNW 29.6 km/h 29.6 km/h 76 % 0.0 mm 0.0 W/m2 CLR
00:45 10.9 °C 6.9 °C 1018.8 hPa WNW 20.4 km/h 20.4 km/h 76 % 0.0 mm 0.0 W/m2 CLR
00:50 11.0 °C 6.9 °C 1018.8 hPa WNW 24.1 km/h 24.1 km/h 76 % 0.0 mm 0.0 W/m2 CLR
00:55 11.0 °C 6.9 °C 1018.8 hPa WNW 37.0 km/h 37.0 km/h 76 % 0.0 mm 0.0 W/m2 CLR
01:00 11.0 °C 6.9 °C 1018.8 hPa West 27.8 km/h 27.8 km/h 76 % 0.0 mm 0.0 W/m2 CLR
01:05 11.0 °C 6.9 °C 1018.8 hPa West 31.5 km/h 31.5 km/h 76 % 0.0 mm 0.0 W/m2 CLR
01:10 11.0 °C 6.9 °C 1018.8 hPa West 27.8 km/h 27.8 km/h 76 % 0.0 mm 0.0 W/m2 CLR
01:11 11.1 °C 7.0 °C 1018.8 hPa West 27.8 km/h 27.8 km/h 76 % 0.0 mm 0.0 W/m2 CLR
01:16 10.9 °C 6.9 °C 1018.8 hPa West 31.5 km/h 31.5 km/h 76 % 0.0 mm 0.0 W/m2 CLR
01:21 10.9 °C 6.9 °C 1018.8 hPa WNW 31.5 km/h 31.5 km/h 76 % 0.0 mm 0.0 W/m2 CLR
01:26 10.8 °C 6.8 °C 1018.8 hPa WNW 29.6 km/h 29.6 km/h 76 % 0.0 mm 0.0 W/m2 CLR
01:31 10.8 °C 6.9 °C 1018.8 hPa WNW 22.2 km/h 22.2 km/h 77 % 0.0 mm 0.0 W/m2 CLR
01:36 10.7 °C 6.8 °C 1018.8 hPa West 18.5 km/h 18.5 km/h 77 % 0.0 mm 0.0 W/m2 CLR
01:41 10.6 °C 6.7 °C 1018.8 hPa WNW 18.5 km/h 18.5 km/h 77 % 0.0 mm 0.0 W/m2 CLR
01:46 10.5 °C 6.8 °C 1018.8 hPa West 20.4 km/h 20.4 km/h 78 % 0.0 mm 0.0 W/m2 CLR
01:51 10.5 °C 6.8 °C 1018.8 hPa NW 19.3 km/h 19.3 km/h 78 % 0.0 mm 0.0 W/m2 CLR
01:56 10.5 °C 6.8 °C 1018.8 hPa WNW 18.5 km/h 18.5 km/h 78 % 0.0 mm 0.0 W/m2 CLR
01:57 10.5 °C 6.6 °C 1018.8 hPa WNW 18.5 km/h 18.5 km/h 77 % 0.0 mm 0.0 W/m2 CLR
02:02 10.5 °C 6.6 °C 1018.8 hPa WNW 18.5 km/h 18.5 km/h 77 % 0.0 mm 0.0 W/m2 CLR
02:07 10.6 °C 6.7 °C 1018.8 hPa WNW 13.0 km/h 13.0 km/h 77 % 0.0 mm 0.0 W/m2 CLR
02:12 10.5 °C 6.6 °C 1018.8 hPa West 14.8 km/h 14.8 km/h 77 % 0.0 mm 0.0 W/m2 CLR
02:17 10.5 °C 6.6 °C 1018.8 hPa WNW 13.0 km/h 13.0 km/h 77 % 0.0 mm 0.0 W/m2 CLR
02:22 10.5 °C 6.6 °C 1018.8 hPa West 18.5 km/h 18.5 km/h 77 % 0.0 mm 0.0 W/m2 CLR
02:27 10.5 °C 6.6 °C 1018.8 hPa WNW 18.5 km/h 18.5 km/h 77 % 0.0 mm 0.0 W/m2 CLR
02:32 10.5 °C 6.6 °C 1018.8 hPa NW 14.8 km/h 14.8 km/h 77 % 0.0 mm 0.0 W/m2 CLR
02:37 10.5 °C 6.6 °C 1018.8 hPa West 11.3 km/h 11.3 km/h 77 % 0.0 mm 0.0 W/m2 CLR
02:42 10.5 °C 6.4 °C 1018.8 hPa WSW 18.5 km/h 18.5 km/h 76 % 0.0 mm 0.0 W/m2 CLR
02:47 10.5 °C 6.4 °C 1018.8 hPa WNW 16.7 km/h 16.7 km/h 76 % 0.0 mm 0.0 W/m2 CLR
02:52 10.4 °C 6.4 °C 1018.8 hPa WNW 18.5 km/h 18.5 km/h 76 % 0.0 mm 0.0 W/m2 CLR
02:57 10.5 °C 6.4 °C 1018.8 hPa WNW 22.5 km/h 22.5 km/h 76 % 0.0 mm 0.0 W/m2 CLR
03:02 10.5 °C 6.4 °C 1018.5 hPa WNW 31.5 km/h 31.5 km/h 76 % 0.0 mm 0.0 W/m2 CLR
03:07 10.6 °C 6.5 °C 1018.8 hPa WNW 29.6 km/h 29.6 km/h 76 % 0.0 mm 0.0 W/m2 CLR
03:12 10.5 °C 6.4 °C 1018.8 hPa WNW 31.5 km/h 31.5 km/h 76 % 0.0 mm 0.0 W/m2 CLR
03:17 10.6 °C 6.5 °C 1018.8 hPa NW 37.0 km/h 37.0 km/h 76 % 0.0 mm 0.0 W/m2 CLR
03:22 10.6 °C 6.5 °C 1018.8 hPa WNW 27.8 km/h 27.8 km/h 76 % 0.0 mm 0.0 W/m2 CLR
03:27 10.6 °C 6.5 °C 1018.8 hPa WNW 31.5 km/h 31.5 km/h 76 % 0.0 mm 0.0 W/m2 CLR
03:32 10.5 °C 6.4 °C 1018.8 hPa WNW 24.1 km/h 24.1 km/h 76 % 0.0 mm 0.0 W/m2 CLR
03:37 10.5 °C 6.4 °C 1018.8 hPa West 31.5 km/h 31.5 km/h 76 % 0.0 mm 0.0 W/m2 CLR
03:42 10.4 °C 6.4 °C 1018.8 hPa West 24.1 km/h 24.1 km/h 76 % 0.0 mm 0.0 W/m2 CLR
03:47 10.4 °C 6.6 °C 1018.8 hPa West 22.2 km/h 22.2 km/h 77 % 0.0 mm 0.0 W/m2 CLR
03:52 10.4 °C 6.4 °C 1018.8 hPa WNW 25.9 km/h 25.9 km/h 76 % 0.0 mm 0.0 W/m2 CLR
03:57 10.3 °C 6.5 °C 1018.8 hPa NW 27.4 km/h 27.4 km/h 77 % 0.0 mm 0.0 W/m2 CLR
04:02 10.3 °C 6.4 °C 1019.2 hPa WNW 22.5 km/h 22.5 km/h 77 % 0.0 mm 0.0 W/m2 CLR
04:07 10.3 °C 6.4 °C 1018.8 hPa WNW 18.5 km/h 18.5 km/h 77 % 0.0 mm 0.0 W/m2 CLR
04:12 10.2 °C 6.4 °C 1019.2 hPa WNW 20.9 km/h 20.9 km/h 77 % 0.0 mm 0.0 W/m2 CLR
04:17 10.2 °C 6.4 °C 1019.2 hPa WNW 16.1 km/h 16.1 km/h 77 % 0.0 mm 0.0 W/m2 CLR
04:22 10.1 °C 6.3 °C 1019.2 hPa West 24.1 km/h 24.1 km/h 77 % 0.0 mm 0.0 W/m2 CLR
04:27 10.1 °C 6.3 °C 1019.2 hPa WNW 18.5 km/h 18.5 km/h 77 % 0.0 mm 0.0 W/m2 CLR
04:32 10.1 °C 6.2 °C 1019.2 hPa WNW 22.2 km/h 22.2 km/h 77 % 0.0 mm 0.0 W/m2 CLR
04:37 10.0 °C 6.2 °C 1019.2 hPa West 18.5 km/h 18.5 km/h 77 % 0.0 mm 0.0 W/m2 CLR
04:42 10.0 °C 6.3 °C 1019.2 hPa WNW 22.2 km/h 22.2 km/h 78 % 0.0 mm 0.0 W/m2 CLR
04:48 10.0 °C 6.3 °C 1019.2 hPa West 20.4 km/h 20.4 km/h 78 % 0.0 mm 0.0 W/m2 CLR
04:53 9.9 °C 6.3 °C 1019.5 hPa West 18.5 km/h 18.5 km/h 78 % 0.0 mm 0.0 W/m2 CLR
04:58 9.9 °C 6.3 °C 1019.5 hPa WNW 18.5 km/h 18.5 km/h 78 % 0.0 mm 0.0 W/m2 CLR
05:03 9.9 °C 6.3 °C 1019.5 hPa NW 18.5 km/h 18.5 km/h 78 % 0.0 mm 0.0 W/m2 CLR
05:08 9.9 °C 6.2 °C 1019.5 hPa WNW 18.5 km/h 18.5 km/h 78 % 0.0 mm 0.0 W/m2 CLR
05:13 9.9 °C 6.1 °C 1019.5 hPa WNW 22.2 km/h 22.2 km/h 77 % 0.0 mm 0.0 W/m2 CLR
05:18 9.9 °C 6.2 °C 1019.5 hPa WNW 18.5 km/h 18.5 km/h 78 % 0.0 mm 0.0 W/m2 CLR
05:23 9.9 °C 6.1 °C 1019.5 hPa WNW 18.5 km/h 18.5 km/h 77 % 0.0 mm 0.0 W/m2 CLR
05:28 9.9 °C 6.1 °C 1019.5 hPa WNW 18.5 km/h 18.5 km/h 77 % 0.0 mm 0.0 W/m2 CLR
05:33 9.9 °C 6.1 °C 1019.5 hPa WNW 14.8 km/h 14.8 km/h 77 % 0.0 mm 0.0 W/m2 CLR
05:38 9.8 °C 6.1 °C 1019.5 hPa WNW 13.0 km/h 13.0 km/h 78 % 0.0 mm 0.0 W/m2 CLR
05:43 9.7 °C 6.1 °C 1019.5 hPa WNW 14.8 km/h 14.8 km/h 78 % 0.0 mm 0.0 W/m2 CLR
05:48 9.7 °C 6.1 °C 1019.5 hPa WNW 16.7 km/h 16.7 km/h 78 % 0.0 mm 0.0 W/m2 CLR
05:53 9.7 °C 6.0 °C 1019.5 hPa WNW 20.4 km/h 20.4 km/h 78 % 0.0 mm 0.0 W/m2 CLR
05:58 9.6 °C 5.9 °C 1019.5 hPa WNW 18.5 km/h 18.5 km/h 78 % 0.0 mm 0.0 W/m2 CLR
06:03 9.6 °C 5.9 °C 1019.5 hPa WNW 24.1 km/h 24.1 km/h 78 % 0.0 mm 0.0 W/m2 CLR
06:08 9.6 °C 5.8 °C 1019.5 hPa West 18.5 km/h 18.5 km/h 77 % 0.0 mm 0.0 W/m2 CLR
06:13 9.6 °C 5.9 °C 1019.5 hPa WNW 20.4 km/h 20.4 km/h 78 % 0.0 mm 0.0 W/m2 CLR
06:18 9.6 °C 5.7 °C 1019.5 hPa West 25.9 km/h 25.9 km/h 77 % 0.0 mm 0.0 W/m2 CLR
06:23 9.6 °C 5.8 °C 1019.5 hPa West 25.9 km/h 25.9 km/h 77 % 0.0 mm 0.0 W/m2 CLR
06:28 9.6 °C 5.7 °C 1019.9 hPa West 25.9 km/h 25.9 km/h 77 % 0.0 mm 0.0 W/m2 OVC
06:33 9.5 °C 5.8 °C 1019.9 hPa WNW 24.1 km/h 24.1 km/h 78 % 0.0 mm 0.0 W/m2 OVC
06:38 9.6 °C 5.9 °C 1019.9 hPa WNW 24.1 km/h 24.1 km/h 78 % 0.0 mm 5.0 W/m2 OVC
06:43 9.5 °C 5.8 °C 1020.2 hPa WNW 18.5 km/h 18.5 km/h 78 % 0.0 mm 7.0 W/m2 BKN
06:48 9.4 °C 5.8 °C 1020.2 hPa West 18.5 km/h 18.5 km/h 78 % 0.0 mm 9.0 W/m2 BKN
06:53 9.5 °C 5.8 °C 1020.2 hPa WNW 22.2 km/h 22.2 km/h 78 % 0.0 mm 11.0 W/m2 BKN
06:58 9.5 °C 5.8 °C 1020.2 hPa West 18.5 km/h 18.5 km/h 78 % 0.0 mm 12.0 W/m2 BKN
07:03 9.4 °C 5.8 °C 1020.2 hPa West 18.5 km/h 18.5 km/h 78 % 0.0 mm 14.0 W/m2 BKN
07:08 9.5 °C 5.7 °C 1020.2 hPa West 18.5 km/h 18.5 km/h 77 % 0.0 mm 18.0 W/m2 BKN
07:13 9.6 °C 5.8 °C 1020.5 hPa WNW 20.4 km/h 20.4 km/h 77 % 0.0 mm 23.0 W/m2 BKN
07:18 9.7 °C 5.7 °C 1020.5 hPa WNW 13.0 km/h 13.0 km/h 76 % 0.0 mm 28.0 W/m2 BKN
07:23 9.8 °C 5.7 °C 1020.5 hPa WNW 16.7 km/h 16.7 km/h 76 % 0.0 mm 46.0 W/m2 SCT
07:28 9.8 °C 5.8 °C 1020.5 hPa WNW 18.5 km/h 18.5 km/h 76 % 0.0 mm 60.0 W/m2 SCT
07:33 9.8 °C 5.8 °C 1020.9 hPa WNW 14.5 km/h 14.5 km/h 76 % 0.0 mm 72.0 W/m2 FEW
07:38 9.9 °C 5.9 °C 1020.9 hPa WNW 12.9 km/h 12.9 km/h 76 % 0.0 mm 86.0 W/m2 FEW
07:43 10.1 °C 5.8 °C 1020.9 hPa WNW 14.8 km/h 14.8 km/h 75 % 0.0 mm 100.0 W/m2 CLR
07:48 10.2 °C 5.9 °C 1020.9 hPa WNW 25.7 km/h 25.7 km/h 75 % 0.0 mm 121.0 W/m2 CLR
07:53 10.3 °C 5.9 °C 1020.9 hPa WNW 29.6 km/h 29.6 km/h 74 % 0.0 mm 137.0 W/m2 CLR
07:58 10.5 °C 6.1 °C 1020.9 hPa WNW 18.5 km/h 18.5 km/h 74 % 0.0 mm 155.0 W/m2 CLR
07:59 10.5 °C 6.1 °C 1020.9 hPa NW 20.4 km/h 20.4 km/h 74 % 0.0 mm 158.0 W/m2 CLR
08:04 10.6 °C 5.9 °C 1020.9 hPa WNW 16.7 km/h 16.7 km/h 73 % 0.0 mm 176.0 W/m2 CLR
08:09 10.8 °C 5.9 °C 1020.9 hPa WNW 24.1 km/h 24.1 km/h 72 % 0.0 mm 199.0 W/m2 CLR
08:14 10.9 °C 6.2 °C 1020.9 hPa WNW 29.6 km/h 29.6 km/h 73 % 0.0 mm 216.0 W/m2 CLR
08:19 10.9 °C 6.1 °C 1020.9 hPa NW 25.9 km/h 25.9 km/h 72 % 0.0 mm 232.0 W/m2 CLR
08:24 11.1 °C 6.2 °C 1021.2 hPa NW 27.8 km/h 27.8 km/h 72 % 0.0 mm 251.0 W/m2 CLR
08:29 11.2 °C 6.1 °C 1021.2 hPa NW 27.8 km/h 27.8 km/h 71 % 0.0 mm 267.0 W/m2 CLR
08:34 11.3 °C 6.3 °C 1020.9 hPa NW 25.9 km/h 25.9 km/h 71 % 0.0 mm 281.0 W/m2 CLR
08:39 11.4 °C 6.2 °C 1021.2 hPa WNW 29.6 km/h 29.6 km/h 70 % 0.0 mm 297.0 W/m2 CLR
08:44 11.5 °C 6.2 °C 1021.2 hPa NW 27.8 km/h 27.8 km/h 70 % 0.0 mm 315.0 W/m2 CLR
08:49 11.6 °C 6.1 °C 1021.2 hPa WNW 31.5 km/h 31.5 km/h 69 % 0.0 mm 330.0 W/m2 CLR
08:55 11.7 °C 6.2 °C 1021.2 hPa WNW 29.6 km/h 29.6 km/h 69 % 0.0 mm 346.0 W/m2 CLR
09:00 11.8 °C 6.5 °C 1021.2 hPa WNW 31.5 km/h 31.5 km/h 70 % 0.0 mm 360.0 W/m2 CLR
09:05 11.8 °C 6.3 °C 1021.2 hPa WNW 31.5 km/h 31.5 km/h 69 % 0.0 mm 378.0 W/m2 CLR
09:10 11.9 °C 6.7 °C 1021.2 hPa WNW 27.8 km/h 27.8 km/h 70 % 0.0 mm 394.0 W/m2 CLR
09:15 12.1 °C 6.6 °C 1021.2 hPa West 22.2 km/h 22.2 km/h 69 % 0.0 mm 408.0 W/m2 CLR
09:20 12.3 °C 6.8 °C 1021.2 hPa NNW 27.4 km/h 27.4 km/h 69 % 0.0 mm 424.0 W/m2 CLR
09:25 12.4 °C 6.7 °C 1021.2 hPa NW 29.6 km/h 29.6 km/h 68 % 0.0 mm 439.0 W/m2 CLR
09:30 12.4 °C 6.7 °C 1021.2 hPa NW 24.1 km/h 24.1 km/h 68 % 0.0 mm 457.0 W/m2 CLR
09:35 12.7 °C 6.9 °C 1021.2 hPa WNW 25.9 km/h 25.9 km/h 68 % 0.0 mm 473.0 W/m2 CLR
09:40 12.8 °C 6.6 °C 1021.2 hPa WNW 27.8 km/h 27.8 km/h 66 % 0.0 mm 489.0 W/m2 CLR
09:45 12.9 °C 6.7 °C 1021.2 hPa WNW 18.5 km/h 18.5 km/h 66 % 0.0 mm 503.0 W/m2 CLR
09:50 13.0 °C 6.6 °C 1021.2 hPa WNW 18.5 km/h 19.3 km/h 65 % 0.0 mm 517.0 W/m2 CLR
09:55 13.2 °C 6.5 °C 1021.2 hPa WNW 18.5 km/h 18.5 km/h 64 % 0.0 mm 534.0 W/m2 CLR
10:00 13.4 °C 6.7 °C 1021.2 hPa WNW 20.4 km/h 20.4 km/h 64 % 0.0 mm 548.0 W/m2 CLR
10:05 13.6 °C 6.7 °C 1021.2 hPa WNW 24.1 km/h 24.1 km/h 63 % 0.0 mm 561.0 W/m2 CLR
10:07 13.6 °C 6.7 °C 1021.2 hPa NW 18.5 km/h 18.5 km/h 63 % 0.0 mm 570.0 W/m2 CLR
10:12 13.7 °C 6.6 °C 1021.2 hPa NNW 22.2 km/h 22.2 km/h 62 % 0.0 mm 584.0 W/m2 CLR
10:17 13.8 °C 6.7 °C 1021.2 hPa NW 25.9 km/h 25.9 km/h 62 % 0.0 mm 599.0 W/m2 CLR
10:22 13.9 °C 6.6 °C 1021.2 hPa NW 22.5 km/h 22.5 km/h 61 % 0.0 mm 612.0 W/m2 CLR
10:27 14.0 °C 6.8 °C 1021.2 hPa NNW 22.2 km/h 22.2 km/h 62 % 0.0 mm 628.0 W/m2 CLR
10:32 14.2 °C 6.7 °C 1021.2 hPa NW 27.8 km/h 27.8 km/h 61 % 0.0 mm 642.0 W/m2 CLR
10:37 14.2 °C 6.3 °C 1021.2 hPa NW 20.9 km/h 22.0 km/h 59 % 0.0 mm 657.0 W/m2 CLR
10:42 14.2 °C 6.3 °C 1021.2 hPa WNW 31.5 km/h 31.5 km/h 59 % 0.0 mm 670.0 W/m2 CLR
10:47 14.2 °C 6.3 °C 1021.2 hPa NW 40.7 km/h 40.7 km/h 59 % 0.0 mm 682.0 W/m2 CLR
10:52 14.3 °C 6.2 °C 1021.6 hPa NW 31.5 km/h 31.5 km/h 58 % 0.0 mm 696.0 W/m2 CLR
10:57 14.3 °C 6.7 °C 1021.2 hPa North 25.9 km/h 25.9 km/h 60 % 0.0 mm 710.0 W/m2 CLR
11:02 14.5 °C 6.3 °C 1021.6 hPa NNW 31.5 km/h 31.5 km/h 58 % 0.0 mm 722.0 W/m2 CLR
11:07 14.5 °C 6.6 °C 1021.6 hPa NNW 25.9 km/h 25.9 km/h 59 % 0.0 mm 735.0 W/m2 CLR
11:12 14.7 °C 6.6 °C 1021.6 hPa NW 25.7 km/h 25.7 km/h 58 % 0.0 mm 745.0 W/m2 CLR
11:17 14.8 °C 6.9 °C 1021.6 hPa West 31.5 km/h 31.5 km/h 59 % 0.0 mm 756.0 W/m2 CLR
11:22 14.9 °C 7.0 °C 1021.6 hPa NW 25.9 km/h 25.9 km/h 59 % 0.0 mm 772.0 W/m2 CLR
11:27 15.3 °C 7.6 °C 1021.6 hPa NW 24.1 km/h 24.1 km/h 60 % 0.0 mm 779.0 W/m2 CLR
11:32 15.5 °C 7.5 °C 1021.6 hPa NW 20.4 km/h 20.4 km/h 59 % 0.0 mm 788.0 W/m2 CLR
11:37 15.6 °C 7.4 °C 1021.6 hPa WNW 24.1 km/h 24.1 km/h 58 % 0.0 mm 800.0 W/m2 CLR
11:42 15.6 °C 7.1 °C 1021.6 hPa NW 31.5 km/h 31.5 km/h 57 % 0.0 mm 814.0 W/m2 CLR
11:47 15.4 °C 7.2 °C 1021.6 hPa NW 20.4 km/h 20.4 km/h 58 % 0.0 mm 823.0 W/m2 CLR
11:48 15.4 °C 7.2 °C 1021.6 hPa WNW 20.4 km/h 20.4 km/h 58 % 0.0 mm 823.0 W/m2 CLR
11:53 15.9 °C 8.1 °C 1021.6 hPa NW 24.1 km/h 24.1 km/h 60 % 0.0 mm 838.0 W/m2 CLR
11:58 15.9 °C 7.9 °C 1021.6 hPa West 14.5 km/h 14.5 km/h 59 % 0.0 mm 849.0 W/m2 CLR
12:03 16.0 °C 8.0 °C 1021.6 hPa NNW 31.5 km/h 31.5 km/h 59 % 0.0 mm 900.0 W/m2 CLR
12:08 15.9 °C 7.7 °C 1021.6 hPa NNW 24.1 km/h 24.1 km/h 58 % 0.0 mm 861.0 W/m2 CLR
12:13 16.2 °C 7.1 °C 1021.6 hPa NW 27.8 km/h 27.8 km/h 55 % 0.0 mm 872.0 W/m2 CLR
12:18 16.1 °C 7.0 °C 1021.6 hPa WNW 24.1 km/h 24.1 km/h 55 % 0.0 mm 886.0 W/m2 CLR
12:23 16.1 °C 7.8 °C 1021.6 hPa NW 27.4 km/h 27.4 km/h 58 % 0.0 mm 898.0 W/m2 CLR
12:28 16.0 °C 6.9 °C 1021.2 hPa West 20.9 km/h 20.9 km/h 55 % 0.0 mm 907.0 W/m2 CLR
12:33 16.2 °C 7.2 °C 1021.6 hPa NNW 31.5 km/h 31.5 km/h 55 % 0.0 mm 926.0 W/m2 CLR
12:38 16.2 °C 7.2 °C 1021.2 hPa WNW 22.2 km/h 22.2 km/h 55 % 0.0 mm 918.0 W/m2 CLR
12:43 16.5 °C 7.4 °C 1021.2 hPa WNW 27.8 km/h 27.8 km/h 55 % 0.0 mm 935.0 W/m2 CLR
12:48 16.7 °C 7.6 °C 1021.2 hPa NW 27.8 km/h 27.8 km/h 55 % 0.0 mm 990.0 W/m2 CLR
12:53 16.6 °C 7.2 °C 1021.2 hPa WNW 20.4 km/h 20.4 km/h 54 % 0.0 mm 944.0 W/m2 CLR
12:58 16.7 °C 7.6 °C 1021.2 hPa NW 29.6 km/h 29.6 km/h 55 % 0.0 mm 949.0 W/m2 CLR
13:03 16.8 °C 7.4 °C 1021.2 hPa NW 18.5 km/h 18.5 km/h 54 % 0.0 mm 944.0 W/m2 CLR
13:08 16.8 °C 7.4 °C 1021.2 hPa NW 27.8 km/h 27.8 km/h 54 % 0.0 mm 960.0 W/m2 CLR
13:13 16.9 °C 7.6 °C 1020.9 hPa West 22.2 km/h 22.2 km/h 54 % 0.0 mm 956.0 W/m2 CLR
13:18 17.1 °C 7.7 °C 1020.9 hPa NW 24.1 km/h 24.1 km/h 54 % 0.0 mm 954.0 W/m2 CLR
13:23 17.2 °C 7.8 °C 1020.9 hPa NW 24.1 km/h 24.1 km/h 54 % 0.0 mm 967.0 W/m2 CLR
13:28 17.3 °C 7.7 °C 1020.9 hPa NNW 25.9 km/h 25.9 km/h 53 % 0.0 mm 972.0 W/m2 CLR
13:33 17.5 °C 8.1 °C 1020.9 hPa NW 25.9 km/h 25.9 km/h 54 % 0.0 mm 960.0 W/m2 CLR
13:38 17.3 °C 7.7 °C 1020.9 hPa WNW 33.3 km/h 33.3 km/h 53 % 0.0 mm 972.0 W/m2 CLR
13:43 17.3 °C 7.7 °C 1020.9 hPa West 24.1 km/h 24.1 km/h 53 % 0.0 mm 1048.0 W/m2 CLR
13:48 17.4 °C 7.8 °C 1020.9 hPa NNW 20.4 km/h 20.4 km/h 53 % 0.0 mm 1063.0 W/m2 CLR
13:53 17.3 °C 8.2 °C 1020.5 hPa NW 25.7 km/h 25.7 km/h 55 % 0.0 mm 1048.0 W/m2 CLR
13:58 17.3 °C 7.6 °C 1020.9 hPa NW 25.9 km/h 25.9 km/h 53 % 0.0 mm 1005.0 W/m2 CLR
14:03 17.7 °C 7.7 °C 1020.5 hPa WNW 25.9 km/h 25.9 km/h 52 % 0.0 mm 1051.0 W/m2 CLR
14:08 17.7 °C 6.9 °C 1020.5 hPa WSW 18.5 km/h 18.5 km/h 49 % 0.0 mm 1136.0 W/m2 CLR
14:13 17.6 °C 7.3 °C 1020.5 hPa NW 24.1 km/h 24.1 km/h 51 % 0.0 mm 995.0 W/m2 CLR
14:18 17.8 °C 7.5 °C 1020.5 hPa NNW 32.2 km/h 32.2 km/h 51 % 0.0 mm 976.0 W/m2 CLR
14:23 17.9 °C 7.1 °C 1020.5 hPa NNW 25.9 km/h 25.9 km/h 49 % 0.0 mm 965.0 W/m2 CLR
14:28 18.1 °C 7.2 °C 1020.5 hPa NNW 20.4 km/h 20.4 km/h 49 % 0.0 mm 949.0 W/m2 CLR
14:29 18.2 °C 7.6 °C 1020.5 hPa WNW 18.5 km/h 18.5 km/h 50 % 0.0 mm 951.0 W/m2 CLR
14:34 18.3 °C 7.7 °C 1020.5 hPa NW 25.9 km/h 25.9 km/h 50 % 0.0 mm 949.0 W/m2 CLR
14:39 18.4 °C 6.9 °C 1020.5 hPa West 20.9 km/h 20.9 km/h 47 % 0.0 mm 940.0 W/m2 CLR
14:44 18.3 °C 6.8 °C 1020.5 hPa NNW 24.1 km/h 24.1 km/h 47 % 0.0 mm 940.0 W/m2 CLR
14:49 18.3 °C 6.4 °C 1020.5 hPa North 16.7 km/h 16.7 km/h 46 % 0.0 mm 997.0 W/m2 CLR
14:54 18.6 °C 7.1 °C 1020.2 hPa NNW 25.9 km/h 25.9 km/h 47 % 0.0 mm 933.0 W/m2 CLR
14:59 18.9 °C 6.7 °C 1020.5 hPa NW 29.6 km/h 29.6 km/h 45 % 0.0 mm 923.0 W/m2 CLR
15:04 18.9 °C 6.1 °C 1020.5 hPa NW 22.2 km/h 22.2 km/h 43 % 0.0 mm 925.0 W/m2 CLR
15:09 18.8 °C 6.9 °C 1020.5 hPa NW 24.1 km/h 24.1 km/h 46 % 0.0 mm 918.0 W/m2 CLR
15:14 19.2 °C 7.0 °C 1020.2 hPa NW 14.5 km/h 14.5 km/h 45 % 0.0 mm 932.0 W/m2 CLR
15:19 19.3 °C 7.1 °C 1020.2 hPa NNE 16.7 km/h 16.7 km/h 45 % 0.0 mm 935.0 W/m2 CLR
15:24 19.4 °C 6.5 °C 1020.5 hPa NW 37.0 km/h 37.0 km/h 43 % 0.0 mm 919.0 W/m2 CLR
15:29 19.2 °C 7.0 °C 1020.5 hPa NW 20.4 km/h 20.4 km/h 45 % 0.0 mm 942.0 W/m2 CLR
15:34 19.3 °C 6.7 °C 1020.5 hPa NNW 25.9 km/h 25.9 km/h 44 % 0.0 mm 898.0 W/m2 CLR
15:39 19.2 °C 6.6 °C 1020.2 hPa WNW 22.5 km/h 22.5 km/h 44 % 0.0 mm 875.0 W/m2 CLR
15:44 19.3 °C 6.4 °C 1020.2 hPa NNW 25.9 km/h 25.9 km/h 43 % 0.0 mm 889.0 W/m2 CLR
15:49 19.3 °C 6.8 °C 1020.2 hPa NNW 18.5 km/h 18.5 km/h 44 % 0.0 mm 867.0 W/m2 CLR
15:54 19.6 °C 6.6 °C 1020.2 hPa NNW 20.4 km/h 20.4 km/h 43 % 0.0 mm 854.0 W/m2 CLR
15:59 19.7 °C 6.8 °C 1020.2 hPa NNW 29.6 km/h 29.6 km/h 43 % 0.0 mm 842.0 W/m2 CLR
16:04 19.6 °C 6.3 °C 1020.2 hPa NNW 27.8 km/h 27.8 km/h 42 % 0.0 mm 830.0 W/m2 CLR
16:09 19.6 °C 6.3 °C 1020.2 hPa North 18.5 km/h 18.5 km/h 42 % 0.0 mm 817.0 W/m2 CLR
16:14 19.7 °C 6.4 °C 1019.9 hPa NNE 14.8 km/h 14.8 km/h 42 % 0.0 mm 807.0 W/m2 CLR
16:19 19.9 °C 7.0 °C 1019.9 hPa NNE 20.4 km/h 20.4 km/h 43 % 0.0 mm 796.0 W/m2 CLR
16:24 20.0 °C 7.4 °C 1019.9 hPa NNW 17.7 km/h 17.7 km/h 44 % 0.0 mm 786.0 W/m2 CLR
16:29 19.9 °C 6.9 °C 1019.9 hPa North 18.5 km/h 18.5 km/h 43 % 0.0 mm 772.0 W/m2 CLR
16:34 19.9 °C 6.9 °C 1019.9 hPa North 24.1 km/h 24.1 km/h 43 % 0.0 mm 761.0 W/m2 CLR
16:39 19.8 °C 6.9 °C 1019.9 hPa North 24.1 km/h 24.1 km/h 43 % 0.0 mm 751.0 W/m2 CLR
16:44 20.1 °C 7.1 °C 1019.9 hPa North 16.7 km/h 16.7 km/h 43 % 0.0 mm 749.0 W/m2 CLR
16:46 20.1 °C 7.1 °C 1019.9 hPa North 22.2 km/h 22.2 km/h 43 % 0.0 mm 744.0 W/m2 CLR
16:51 19.9 °C 6.9 °C 1019.9 hPa North 18.5 km/h 18.5 km/h 43 % 0.0 mm 719.0 W/m2 CLR
16:56 20.1 °C 6.7 °C 1019.9 hPa WNW 20.4 km/h 20.4 km/h 42 % 0.0 mm 707.0 W/m2 CLR
17:01 20.2 °C 6.8 °C 1019.9 hPa NNE 18.5 km/h 18.5 km/h 42 % 0.0 mm 698.0 W/m2 CLR
17:06 20.0 °C 6.3 °C 1019.5 hPa NNE 24.1 km/h 24.1 km/h 41 % 0.0 mm 689.0 W/m2 CLR
17:11 20.1 °C 7.1 °C 1019.5 hPa WNW 20.4 km/h 20.4 km/h 43 % 0.0 mm 673.0 W/m2 CLR
17:16 20.2 °C 6.2 °C 1019.5 hPa NNW 13.0 km/h 13.0 km/h 40 % 0.0 mm 661.0 W/m2 CLR
17:21 20.3 °C 6.6 °C 1019.5 hPa NNW 25.9 km/h 25.9 km/h 41 % 0.0 mm 642.0 W/m2 CLR
17:26 19.9 °C 6.7 °C 1019.5 hPa North 14.8 km/h 14.8 km/h 42 % 0.0 mm 629.0 W/m2 CLR
17:31 20.0 °C 6.0 °C 1019.5 hPa WNW 1.9 km/h   40 % 0.0 mm 615.0 W/m2 CLR
17:36 20.4 °C 6.7 °C 1019.5 hPa North 27.8 km/h 27.8 km/h 41 % 0.0 mm 599.0 W/m2 CLR
17:41 20.4 °C 6.4 °C 1019.5 hPa NNW 3.7 km/h   40 % 0.0 mm 587.0 W/m2 CLR
17:46 20.6 °C 6.8 °C 1019.5 hPa NNW 14.8 km/h 14.8 km/h 41 % 0.0 mm 577.0 W/m2 CLR
17:51 20.5 °C 6.4 °C 1019.5 hPa North 14.8 km/h 14.8 km/h 40 % 0.0 mm 564.0 W/m2 CLR
17:56 20.3 °C 6.3 °C 1019.5 hPa NNW 20.9 km/h 20.9 km/h 40 % 0.0 mm 547.0 W/m2 CLR
18:01 20.3 °C 6.2 °C 1019.5 hPa NNW 18.5 km/h 18.5 km/h 40 % 0.0 mm 527.0 W/m2 CLR
18:06 20.2 °C 6.5 °C 1019.5 hPa North 24.1 km/h 24.1 km/h 41 % 0.0 mm 513.0 W/m2 CLR
18:11 20.5 °C 6.4 °C 1019.5 hPa North 18.5 km/h 18.5 km/h 40 % 0.0 mm 499.0 W/m2 CLR
18:16 20.5 °C 6.8 °C 1019.5 hPa North 16.7 km/h 16.7 km/h 41 % 0.0 mm 483.0 W/m2 CLR
18:21 20.6 °C 6.6 °C 1019.5 hPa North 20.9 km/h 20.9 km/h 40 % 0.0 mm 461.0 W/m2 CLR
18:26 20.3 °C 6.3 °C 1019.5 hPa North 22.2 km/h 22.2 km/h 40 % 0.0 mm 448.0 W/m2 CLR
18:31 20.2 °C 6.6 °C 1019.5 hPa NNW 9.3 km/h   41 % 0.0 mm 436.0 W/m2 CLR
18:36 20.4 °C 6.7 °C 1019.5 hPa NNW 14.8 km/h 14.8 km/h 41 % 0.0 mm 422.0 W/m2 CLR
18:41 20.5 °C 6.8 °C 1019.5 hPa North 18.5 km/h 18.5 km/h 41 % 0.0 mm 406.0 W/m2 CLR
18:46 20.5 °C 6.1 °C 1019.5 hPa North 18.5 km/h 18.5 km/h 39 % 0.0 mm 387.0 W/m2 CLR
18:51 20.4 °C 6.3 °C 1019.5 hPa North 20.4 km/h 20.4 km/h 40 % 0.0 mm 371.0 W/m2 CLR
18:56 20.3 °C 6.3 °C 1019.2 hPa NNW 18.5 km/h 18.5 km/h 40 % 0.0 mm 357.0 W/m2 CLR
19:01 20.2 °C 6.2 °C 1019.2 hPa North 13.0 km/h 13.0 km/h 40 % 0.0 mm 339.0 W/m2 CLR
19:06 20.4 °C 6.3 °C 1019.2 hPa NNW 20.4 km/h 20.4 km/h 40 % 0.0 mm 322.0 W/m2 CLR
19:11 20.3 °C 6.3 °C 1019.5 hPa North 24.1 km/h 24.1 km/h 40 % 0.0 mm 306.0 W/m2 CLR
19:17 20.3 °C 6.3 °C 1019.2 hPa NNW 14.8 km/h 14.8 km/h 40 % 0.0 mm 292.0 W/m2 CLR
19:21 20.4 °C 6.3 °C 1019.5 hPa North 14.8 km/h 14.8 km/h 40 % 0.0 mm 276.0 W/m2 CLR
19:26 20.5 °C 6.4 °C 1019.2 hPa NW 11.1 km/h   40 % 0.0 mm 262.0 W/m2 CLR
19:32 20.4 °C 6.4 °C 1019.2 hPa NNW 18.5 km/h 18.5 km/h 40 % 0.0 mm 243.0 W/m2 CLR
19:37 20.4 °C 6.3 °C 1019.2 hPa WNW 11.1 km/h 11.1 km/h 40 % 0.0 mm 225.0 W/m2 CLR
19:42 20.3 °C 6.3 °C 1019.5 hPa North 18.5 km/h 18.5 km/h 40 % 0.0 mm 207.0 W/m2 CLR
19:47 20.1 °C 6.1 °C 1019.5 hPa North 18.5 km/h 18.5 km/h 40 % 0.0 mm 186.0 W/m2 CLR
19:52 20.0 °C 6.0 °C 1019.5 hPa North 14.5 km/h 14.5 km/h 40 % 0.0 mm 169.0 W/m2 CLR
19:57 19.9 °C 5.9 °C 1019.5 hPa NNW 18.5 km/h 18.5 km/h 40 % 0.0 mm 153.0 W/m2 CLR
20:02 19.8 °C 6.2 °C 1019.5 hPa North 18.5 km/h 18.5 km/h 41 % 0.0 mm 135.0 W/m2 CLR
20:07 19.8 °C 6.2 °C 1019.5 hPa North 13.0 km/h 13.0 km/h 41 % 0.0 mm 118.0 W/m2 CLR
20:12 19.8 °C 5.8 °C 1019.5 hPa North 13.0 km/h 13.0 km/h 40 % 0.0 mm 102.0 W/m2 CLR
20:17 19.7 °C 6.1 °C 1019.9 hPa North 13.0 km/h 13.0 km/h 41 % 0.0 mm 86.0 W/m2 CLR
20:22 19.7 °C 6.1 °C 1019.9 hPa WNW 1.9 km/h   41 % 0.0 mm 72.0 W/m2 FEW
20:27 19.6 °C 6.3 °C 1019.9 hPa NNW 16.7 km/h 16.7 km/h 42 % 0.0 mm 62.0 W/m2 SCT
20:32 19.4 °C 6.1 °C 1019.9 hPa NNW 13.0 km/h 13.0 km/h 42 % 0.0 mm 42.0 W/m2 BKN
20:37 19.3 °C 6.1 °C 1019.9 hPa NNW 1.9 km/h   42 % 0.0 mm 35.0 W/m2 BKN
20:42 19.1 °C 6.2 °C 1019.9 hPa North 16.7 km/h 16.7 km/h 43 % 0.0 mm 28.0 W/m2 BKN
20:47 18.8 °C 6.0 °C 1019.9 hPa NNW 16.7 km/h 16.7 km/h 43 % 0.0 mm 21.0 W/m2 BKN
20:52 18.7 °C 6.2 °C 1019.9 hPa NNW 3.7 km/h 3.7 km/h 44 % 0.0 mm 16.0 W/m2 BKN
20:57 18.4 °C 6.3 °C 1020.2 hPa NNW 3.2 km/h 3.2 km/h 45 % 0.0 mm 12.0 W/m2 BKN
21:02 18.2 °C 6.4 °C 1020.2 hPa Calm     46 % 0.0 mm 11.0 W/m2 BKN
21:07 18.1 °C 6.3 °C 1020.2 hPa NNW 3.7 km/h 3.7 km/h 46 % 0.0 mm 9.0 W/m2 BKN
21:12 17.9 °C 6.1 °C 1020.2 hPa NW 5.6 km/h 5.6 km/h 46 % 0.0 mm 5.0 W/m2 OVC
21:17 17.8 °C 6.0 °C 1020.2 hPa NW 5.6 km/h 5.6 km/h 46 % 0.0 mm 0.0 W/m2 OVC
21:22 17.6 °C 6.2 °C 1020.5 hPa Calm     47 % 0.0 mm 0.0 W/m2 OVC
21:27 17.4 °C 6.3 °C 1020.5 hPa Calm     48 % 0.0 mm 0.0 W/m2 CLR
21:32 17.1 °C 6.3 °C 1020.5 hPa Calm     49 % 0.0 mm 0.0 W/m2 CLR
21:37 16.9 °C 6.4 °C 1020.5 hPa Calm     50 % 0.0 mm 0.0 W/m2 CLR
21:42 16.6 °C 6.4 °C 1020.5 hPa NW 5.6 km/h 5.6 km/h 51 % 0.0 mm 0.0 W/m2 CLR
21:47 16.4 °C 6.6 °C 1020.9 hPa NW 6.4 km/h 6.4 km/h 52 % 0.0 mm 0.0 W/m2 CLR
21:52 16.4 °C 6.3 °C 1020.9 hPa NW 5.6 km/h 5.6 km/h 51 % 0.0 mm 0.0 W/m2 CLR
21:57 16.3 °C 7.0 °C 1020.9 hPa NW 5.6 km/h 5.6 km/h 54 % 0.0 mm 0.0 W/m2 CLR
22:02 15.8 °C 6.6 °C 1020.9 hPa WNW 5.6 km/h 5.6 km/h 54 % 0.0 mm 0.0 W/m2 CLR
22:07 15.6 °C 6.6 °C 1020.9 hPa WNW 5.6 km/h 5.6 km/h 55 % 0.0 mm 0.0 W/m2 CLR
22:12 15.5 °C 6.5 °C 1021.2 hPa WNW 3.7 km/h 3.7 km/h 55 % 0.0 mm 0.0 W/m2 CLR
22:17 15.4 °C 6.7 °C 1021.2 hPa WNW 3.7 km/h 3.7 km/h 56 % 0.0 mm 0.0 W/m2 CLR
22:18 15.4 °C 6.7 °C 1021.2 hPa WNW 3.7 km/h 3.7 km/h 56 % 0.0 mm 0.0 W/m2 CLR
22:23 15.2 °C 6.7 °C 1021.2 hPa NW 5.6 km/h 5.6 km/h 57 % 0.0 mm 0.0 W/m2 CLR
22:28 15.2 °C 6.4 °C 1021.6 hPa NW 5.6 km/h 5.6 km/h 56 % 0.0 mm 0.0 W/m2 CLR
22:33 15.4 °C 6.7 °C 1021.6 hPa NW 3.7 km/h   56 % 0.0 mm 0.0 W/m2 CLR
22:43 14.9 °C 6.9 °C 1021.6 hPa NW 5.6 km/h 5.6 km/h 59 % 0.0 mm 0.0 W/m2 CLR
22:48 14.4 °C 6.8 °C 1021.6 hPa NW 5.6 km/h 5.6 km/h 60 % 0.0 mm 0.0 W/m2 CLR
22:53 14.2 °C 6.7 °C 1021.6 hPa WNW 3.7 km/h 3.7 km/h 61 % 0.0 mm 0.0 W/m2 CLR
22:58 14.0 °C 6.6 °C 1021.9 hPa WNW 3.7 km/h   61 % 0.0 mm 0.0 W/m2 CLR
23:03 13.9 °C 6.9 °C 1021.9 hPa Calm     63 % 0.0 mm 0.0 W/m2 CLR
23:08 13.7 °C 7.3 °C 1022.2 hPa Calm     65 % 0.0 mm 0.0 W/m2 CLR
23:13 13.4 °C 7.2 °C 1022.2 hPa Calm     66 % 0.0 mm 0.0 W/m2 CLR
23:18 13.2 °C 7.2 °C 1022.2 hPa Calm     67 % 0.0 mm 0.0 W/m2 CLR
23:23 13.3 °C 7.3 °C 1022.2 hPa Calm     67 % 0.0 mm 0.0 W/m2 CLR
23:28 13.1 °C 7.6 °C 1022.2 hPa Calm     69 % 0.0 mm 0.0 W/m2 CLR
23:33 12.9 °C 7.3 °C 1022.2 hPa Calm     69 % 0.0 mm 0.0 W/m2 CLR
23:38 12.6 °C 7.3 °C 1022.2 hPa Calm     70 % 0.0 mm 0.0 W/m2 CLR
23:43 12.3 °C 7.2 °C 1022.2 hPa Calm     71 % 0.0 mm 0.0 W/m2 CLR
23:48 12.1 °C 7.4 °C 1022.2 hPa Calm     73 % 0.0 mm 0.0 W/m2 CLR
23:53 12.1 °C 7.3 °C 1022.2 hPa Calm     73 % 0.0 mm 0.0 W/m2 CLR
23:58 12.0 °C 7.3 °C 1022.2 hPa Calm     73 % 0.0 mm 0.0 W/m2 CLR
Lo Temps de Massalio
Compliments of Weather Underground - 1.25 mb